sensor_id;sensor_type;location;lat;lon;timestamp;temperature;humidity
678;DHT22;321;48.814;9.132;2023-04-25T00:01:14;11.10;99.90
678;DHT22;321;48.814;9.132;2023-04-25T00:03:40;11.20;99.90
678;DHT22;321;48.814;9.132;2023-04-25T00:06:06;11.20;99.90
678;DHT22;321;48.814;9.132;2023-04-25T00:08:32;11.10;99.90
678;DHT22;321;48.814;9.132;2023-04-25T00:10:59;11.10;99.90
678;DHT22;321;48.814;9.132;2023-04-25T00:13:25;11.20;99.90
678;DHT22;321;48.814;9.132;2023-04-25T00:15:51;11.30;99.90
678;DHT22;321;48.814;9.132;2023-04-25T00:18:21;11.30;99.90
678;DHT22;321;48.814;9.132;2023-04-25T00:20:47;11.30;99.90
678;DHT22;321;48.814;9.132;2023-04-25T00:23:14;11.30;99.90
678;DHT22;321;48.814;9.132;2023-04-25T00:25:44;11.30;99.90
678;DHT22;321;48.814;9.132;2023-04-25T00:28:11;11.30;99.90
678;DHT22;321;48.814;9.132;2023-04-25T00:30:38;11.30;99.90
678;DHT22;321;48.814;9.132;2023-04-25T00:33:04;11.20;99.90
678;DHT22;321;48.814;9.132;2023-04-25T00:35:30;11.20;99.90
678;DHT22;321;48.814;9.132;2023-04-25T00:37:55;11.20;99.90
678;DHT22;321;48.814;9.132;2023-04-25T00:40:21;11.20;99.90
678;DHT22;321;48.814;9.132;2023-04-25T00:42:47;11.20;99.90
678;DHT22;321;48.814;9.132;2023-04-25T00:45:14;11.10;99.90
678;DHT22;321;48.814;9.132;2023-04-25T00:47:42;11.10;99.90
678;DHT22;321;48.814;9.132;2023-04-25T00:50:09;11.10;99.90
678;DHT22;321;48.814;9.132;2023-04-25T00:52:40;11.20;99.90
678;DHT22;321;48.814;9.132;2023-04-25T00:55:07;11.20;99.90
678;DHT22;321;48.814;9.132;2023-04-25T00:57:33;11.20;99.90
678;DHT22;321;48.814;9.132;2023-04-25T00:59:59;11.20;99.90
678;DHT22;321;48.814;9.132;2023-04-25T01:02:25;11.00;99.90
678;DHT22;321;48.814;9.132;2023-04-25T01:04:52;11.10;99.90
678;DHT22;321;48.814;9.132;2023-04-25T01:07:18;11.10;99.90
678;DHT22;321;48.814;9.132;2023-04-25T01:09:44;11.10;99.90
678;DHT22;321;48.814;9.132;2023-04-25T01:12:09;11.10;99.90
678;DHT22;321;48.814;9.132;2023-04-25T01:14:35;11.10;99.90
678;DHT22;321;48.814;9.132;2023-04-25T01:17:01;11.10;99.90
678;DHT22;321;48.814;9.132;2023-04-25T01:19:27;11.10;99.90
678;DHT22;321;48.814;9.132;2023-04-25T01:21:52;11.00;99.90
678;DHT22;321;48.814;9.132;2023-04-25T01:24:18;11.00;99.90
678;DHT22;321;48.814;9.132;2023-04-25T01:26:44;10.80;99.90
678;DHT22;321;48.814;9.132;2023-04-25T01:29:18;10.80;99.90
678;DHT22;321;48.814;9.132;2023-04-25T01:31:44;10.80;99.90
678;DHT22;321;48.814;9.132;2023-04-25T01:34:11;10.50;99.90
678;DHT22;321;48.814;9.132;2023-04-25T01:36:37;10.60;99.90
678;DHT22;321;48.814;9.132;2023-04-25T01:39:03;10.60;99.90
678;DHT22;321;48.814;9.132;2023-04-25T01:41:29;10.60;99.90
678;DHT22;321;48.814;9.132;2023-04-25T01:43:55;10.50;99.90
678;DHT22;321;48.814;9.132;2023-04-25T01:46:21;10.50;99.90
678;DHT22;321;48.814;9.132;2023-04-25T01:48:47;10.50;99.90
678;DHT22;321;48.814;9.132;2023-04-25T01:51:13;10.50;99.90
678;DHT22;321;48.814;9.132;2023-04-25T01:53:39;10.60;99.90
678;DHT22;321;48.814;9.132;2023-04-25T01:56:05;10.70;99.90
678;DHT22;321;48.814;9.132;2023-04-25T01:58:31;10.70;99.90
678;DHT22;321;48.814;9.132;2023-04-25T02:00:56;10.60;99.90
678;DHT22;321;48.814;9.132;2023-04-25T02:03:22;10.70;99.90
678;DHT22;321;48.814;9.132;2023-04-25T02:05:48;10.90;99.90
678;DHT22;321;48.814;9.132;2023-04-25T02:08:14;10.90;99.90
678;DHT22;321;48.814;9.132;2023-04-25T02:10:39;10.90;99.90
678;DHT22;321;48.814;9.132;2023-04-25T02:13:05;10.90;99.90
678;DHT22;321;48.814;9.132;2023-04-25T02:15:31;10.90;99.90
678;DHT22;321;48.814;9.132;2023-04-25T02:17:56;10.80;99.90
678;DHT22;321;48.814;9.132;2023-04-25T02:20:24;10.90;99.90
678;DHT22;321;48.814;9.132;2023-04-25T02:22:50;10.90;99.90
678;DHT22;321;48.814;9.132;2023-04-25T02:25:17;10.90;99.90
678;DHT22;321;48.814;9.132;2023-04-25T02:27:43;10.80;99.90
678;DHT22;321;48.814;9.132;2023-04-25T02:30:09;10.80;99.90
678;DHT22;321;48.814;9.132;2023-04-25T02:32:34;10.70;99.90
678;DHT22;321;48.814;9.132;2023-04-25T02:35:01;10.70;99.90
678;DHT22;321;48.814;9.132;2023-04-25T02:37:32;10.50;99.90
678;DHT22;321;48.814;9.132;2023-04-25T02:39:58;10.50;99.90
678;DHT22;321;48.814;9.132;2023-04-25T02:42:24;10.60;99.90
678;DHT22;321;48.814;9.132;2023-04-25T02:44:49;10.60;99.90
678;DHT22;321;48.814;9.132;2023-04-25T02:47:15;10.60;99.90
678;DHT22;321;48.814;9.132;2023-04-25T02:49:40;10.60;99.90
678;DHT22;321;48.814;9.132;2023-04-25T02:52:06;10.70;99.90
678;DHT22;321;48.814;9.132;2023-04-25T02:54:32;10.70;99.90
678;DHT22;321;48.814;9.132;2023-04-25T02:56:57;10.60;99.90
678;DHT22;321;48.814;9.132;2023-04-25T02:59:23;10.40;99.90
678;DHT22;321;48.814;9.132;2023-04-25T03:01:48;10.40;99.90
678;DHT22;321;48.814;9.132;2023-04-25T03:04:14;10.30;99.90
678;DHT22;321;48.814;9.132;2023-04-25T03:06:40;10.40;99.90
678;DHT22;321;48.814;9.132;2023-04-25T03:09:05;10.40;99.90
678;DHT22;321;48.814;9.132;2023-04-25T03:11:31;10.50;99.90
678;DHT22;321;48.814;9.132;2023-04-25T03:13:57;10.50;99.90
678;DHT22;321;48.814;9.132;2023-04-25T03:16:24;10.50;99.90
678;DHT22;321;48.814;9.132;2023-04-25T03:18:50;10.60;99.90
678;DHT22;321;48.814;9.132;2023-04-25T03:21:16;10.50;99.90
678;DHT22;321;48.814;9.132;2023-04-25T03:23:42;10.60;99.90
678;DHT22;321;48.814;9.132;2023-04-25T03:26:07;10.60;99.90
678;DHT22;321;48.814;9.132;2023-04-25T03:28:33;10.60;99.90
678;DHT22;321;48.814;9.132;2023-04-25T03:30:58;10.60;99.90
678;DHT22;321;48.814;9.132;2023-04-25T03:33:24;10.60;99.90
678;DHT22;321;48.814;9.132;2023-04-25T03:35:50;10.60;99.90
678;DHT22;321;48.814;9.132;2023-04-25T03:38:17;10.70;99.90
678;DHT22;321;48.814;9.132;2023-04-25T03:40:42;10.70;99.90
678;DHT22;321;48.814;9.132;2023-04-25T03:43:08;10.70;99.90
678;DHT22;321;48.814;9.132;2023-04-25T03:45:33;10.60;99.90
678;DHT22;321;48.814;9.132;2023-04-25T03:47:59;10.60;99.90
678;DHT22;321;48.814;9.132;2023-04-25T03:50:24;10.60;99.90
678;DHT22;321;48.814;9.132;2023-04-25T03:52:50;10.50;99.90
678;DHT22;321;48.814;9.132;2023-04-25T03:55:16;10.60;99.90
678;DHT22;321;48.814;9.132;2023-04-25T03:57:41;10.60;99.90
678;DHT22;321;48.814;9.132;2023-04-25T04:00:07;10.60;99.90
678;DHT22;321;48.814;9.132;2023-04-25T04:02:33;10.60;99.90
678;DHT22;321;48.814;9.132;2023-04-25T04:05:00;10.50;99.90
678;DHT22;321;48.814;9.132;2023-04-25T04:07:26;10.60;99.90
678;DHT22;321;48.814;9.132;2023-04-25T04:09:51;10.50;99.90
678;DHT22;321;48.814;9.132;2023-04-25T04:12:17;10.50;99.90
678;DHT22;321;48.814;9.132;2023-04-25T04:14:42;10.50;99.90
678;DHT22;321;48.814;9.132;2023-04-25T04:17:08;10.50;99.90
678;DHT22;321;48.814;9.132;2023-04-25T04:19:33;10.50;99.90
678;DHT22;321;48.814;9.132;2023-04-25T04:21:59;10.50;99.90
678;DHT22;321;48.814;9.132;2023-04-25T04:24:25;10.50;99.90
678;DHT22;321;48.814;9.132;2023-04-25T04:26:50;10.50;99.90
678;DHT22;321;48.814;9.132;2023-04-25T04:29:17;10.40;99.90
678;DHT22;321;48.814;9.132;2023-04-25T04:31:48;10.40;99.90
678;DHT22;321;48.814;9.132;2023-04-25T04:34:14;10.40;99.90
678;DHT22;321;48.814;9.132;2023-04-25T04:36:41;10.40;99.90
678;DHT22;321;48.814;9.132;2023-04-25T04:39:07;10.50;99.90
678;DHT22;321;48.814;9.132;2023-04-25T04:41:34;10.40;99.90
678;DHT22;321;48.814;9.132;2023-04-25T04:44:00;10.40;99.90
678;DHT22;321;48.814;9.132;2023-04-25T04:46:27;10.40;99.90
678;DHT22;321;48.814;9.132;2023-04-25T04:48:53;10.40;99.90
678;DHT22;321;48.814;9.132;2023-04-25T04:51:19;10.50;99.90
678;DHT22;321;48.814;9.132;2023-04-25T04:53:45;10.60;99.90
678;DHT22;321;48.814;9.132;2023-04-25T04:56:11;10.70;99.90
678;DHT22;321;48.814;9.132;2023-04-25T04:58:37;10.60;99.90
678;DHT22;321;48.814;9.132;2023-04-25T05:01:02;10.50;99.90
678;DHT22;321;48.814;9.132;2023-04-25T05:03:28;10.60;99.90
678;DHT22;321;48.814;9.132;2023-04-25T05:05:54;10.60;99.90
678;DHT22;321;48.814;9.132;2023-04-25T05:08:19;10.70;99.90
678;DHT22;321;48.814;9.132;2023-04-25T05:10:45;10.70;99.90
678;DHT22;321;48.814;9.132;2023-04-25T05:13:10;10.80;99.90
678;DHT22;321;48.814;9.132;2023-04-25T05:15:36;10.90;99.90
678;DHT22;321;48.814;9.132;2023-04-25T05:18:02;10.90;99.90
678;DHT22;321;48.814;9.132;2023-04-25T05:20:27;10.90;99.90
678;DHT22;321;48.814;9.132;2023-04-25T05:22:53;11.00;99.90
678;DHT22;321;48.814;9.132;2023-04-25T05:25:18;10.90;99.90
678;DHT22;321;48.814;9.132;2023-04-25T05:27:44;10.80;99.90
678;DHT22;321;48.814;9.132;2023-04-25T05:30:10;10.80;99.90
678;DHT22;321;48.814;9.132;2023-04-25T05:32:35;10.90;99.90
678;DHT22;321;48.814;9.132;2023-04-25T05:35:02;10.90;99.90
678;DHT22;321;48.814;9.132;2023-04-25T05:37:28;10.70;99.90
678;DHT22;321;48.814;9.132;2023-04-25T05:39:55;10.60;99.90
678;DHT22;321;48.814;9.132;2023-04-25T05:42:21;10.70;99.90
678;DHT22;321;48.814;9.132;2023-04-25T05:44:46;10.60;99.90
678;DHT22;321;48.814;9.132;2023-04-25T05:47:12;10.80;99.90
678;DHT22;321;48.814;9.132;2023-04-25T05:49:38;10.90;99.90
678;DHT22;321;48.814;9.132;2023-04-25T05:52:03;11.10;99.90
678;DHT22;321;48.814;9.132;2023-04-25T05:54:29;11.00;99.90
678;DHT22;321;48.814;9.132;2023-04-25T05:56:56;11.10;99.90
678;DHT22;321;48.814;9.132;2023-04-25T05:59:22;11.20;99.90
678;DHT22;321;48.814;9.132;2023-04-25T06:01:48;11.30;99.90
678;DHT22;321;48.814;9.132;2023-04-25T06:04:13;11.40;99.90
678;DHT22;321;48.814;9.132;2023-04-25T06:06:39;11.60;99.90
678;DHT22;321;48.814;9.132;2023-04-25T06:09:04;11.60;99.90
678;DHT22;321;48.814;9.132;2023-04-25T06:11:30;11.70;99.90
678;DHT22;321;48.814;9.132;2023-04-25T06:13:55;11.70;99.90
678;DHT22;321;48.814;9.132;2023-04-25T06:16:21;11.60;99.90
678;DHT22;321;48.814;9.132;2023-04-25T06:18:46;11.70;99.90
678;DHT22;321;48.814;9.132;2023-04-25T06:21:12;11.90;99.90
678;DHT22;321;48.814;9.132;2023-04-25T06:23:38;12.00;99.90
678;DHT22;321;48.814;9.132;2023-04-25T06:26:03;12.10;99.90
678;DHT22;321;48.814;9.132;2023-04-25T06:28:29;12.20;99.90
678;DHT22;321;48.814;9.132;2023-04-25T06:30:54;12.10;99.90
678;DHT22;321;48.814;9.132;2023-04-25T06:33:20;12.10;99.90
678;DHT22;321;48.814;9.132;2023-04-25T06:35:46;12.30;99.90
678;DHT22;321;48.814;9.132;2023-04-25T06:38:12;12.50;99.90
678;DHT22;321;48.814;9.132;2023-04-25T06:40:38;12.50;99.90
678;DHT22;321;48.814;9.132;2023-04-25T06:43:03;12.40;99.90
678;DHT22;321;48.814;9.132;2023-04-25T06:45:29;12.60;99.90
678;DHT22;321;48.814;9.132;2023-04-25T06:47:55;12.60;99.90
678;DHT22;321;48.814;9.132;2023-04-25T06:50:21;12.60;99.90
678;DHT22;321;48.814;9.132;2023-04-25T06:52:47;12.60;99.90
678;DHT22;321;48.814;9.132;2023-04-25T06:55:12;12.70;99.90
678;DHT22;321;48.814;9.132;2023-04-25T06:57:38;12.70;99.90
678;DHT22;321;48.814;9.132;2023-04-25T07:00:04;12.60;99.90
678;DHT22;321;48.814;9.132;2023-04-25T07:02:33;12.60;99.90
678;DHT22;321;48.814;9.132;2023-04-25T07:04:59;12.50;99.90
678;DHT22;321;48.814;9.132;2023-04-25T07:07:25;12.40;99.90
678;DHT22;321;48.814;9.132;2023-04-25T07:09:51;12.30;99.90
678;DHT22;321;48.814;9.132;2023-04-25T07:12:16;12.10;99.90
678;DHT22;321;48.814;9.132;2023-04-25T07:14:42;12.10;99.90
678;DHT22;321;48.814;9.132;2023-04-25T07:17:07;12.40;99.90
678;DHT22;321;48.814;9.132;2023-04-25T07:19:33;12.30;99.90
678;DHT22;321;48.814;9.132;2023-04-25T07:21:59;12.40;99.90
678;DHT22;321;48.814;9.132;2023-04-25T07:24:24;12.40;99.90
678;DHT22;321;48.814;9.132;2023-04-25T07:26:50;12.40;99.90
678;DHT22;321;48.814;9.132;2023-04-25T07:29:16;12.50;99.90
678;DHT22;321;48.814;9.132;2023-04-25T07:31:41;12.60;99.90
678;DHT22;321;48.814;9.132;2023-04-25T07:34:07;12.60;99.90
678;DHT22;321;48.814;9.132;2023-04-25T07:36:33;12.40;99.90
678;DHT22;321;48.814;9.132;2023-04-25T07:38:58;12.30;99.90
678;DHT22;321;48.814;9.132;2023-04-25T07:41:24;12.20;99.90
678;DHT22;321;48.814;9.132;2023-04-25T07:43:49;12.10;99.90
678;DHT22;321;48.814;9.132;2023-04-25T07:46:15;12.10;99.90
678;DHT22;321;48.814;9.132;2023-04-25T07:48:40;12.00;99.90
678;DHT22;321;48.814;9.132;2023-04-25T07:51:06;12.10;99.90
678;DHT22;321;48.814;9.132;2023-04-25T07:53:32;12.20;99.90
678;DHT22;321;48.814;9.132;2023-04-25T07:56:00;12.20;99.90
678;DHT22;321;48.814;9.132;2023-04-25T07:58:25;11.80;99.90
678;DHT22;321;48.814;9.132;2023-04-25T08:00:51;11.90;99.90
678;DHT22;321;48.814;9.132;2023-04-25T08:03:16;12.10;99.90
678;DHT22;321;48.814;9.132;2023-04-25T08:05:42;12.20;99.90
678;DHT22;321;48.814;9.132;2023-04-25T08:08:08;12.30;99.90
678;DHT22;321;48.814;9.132;2023-04-25T08:10:33;12.30;99.90
678;DHT22;321;48.814;9.132;2023-04-25T08:12:59;12.20;99.90
678;DHT22;321;48.814;9.132;2023-04-25T08:15:25;12.30;99.90
678;DHT22;321;48.814;9.132;2023-04-25T08:17:51;12.40;99.90
678;DHT22;321;48.814;9.132;2023-04-25T08:20:17;12.40;99.90
678;DHT22;321;48.814;9.132;2023-04-25T08:22:42;12.30;99.90
678;DHT22;321;48.814;9.132;2023-04-25T08:25:08;12.20;99.90
678;DHT22;321;48.814;9.132;2023-04-25T08:27:34;12.30;99.90
678;DHT22;321;48.814;9.132;2023-04-25T08:30:00;12.20;99.90
678;DHT22;321;48.814;9.132;2023-04-25T08:32:26;12.00;99.90
678;DHT22;321;48.814;9.132;2023-04-25T08:34:51;12.10;99.90
678;DHT22;321;48.814;9.132;2023-04-25T08:37:19;12.10;99.90
678;DHT22;321;48.814;9.132;2023-04-25T08:39:45;12.10;99.90
678;DHT22;321;48.814;9.132;2023-04-25T08:42:12;12.00;99.90
678;DHT22;321;48.814;9.132;2023-04-25T08:44:38;12.20;99.90
678;DHT22;321;48.814;9.132;2023-04-25T08:47:04;12.40;99.90
678;DHT22;321;48.814;9.132;2023-04-25T08:49:33;12.50;99.90
678;DHT22;321;48.814;9.132;2023-04-25T08:52:02;12.60;99.90
678;DHT22;321;48.814;9.132;2023-04-25T08:54:31;12.70;99.90
678;DHT22;321;48.814;9.132;2023-04-25T08:56:57;12.70;99.90
678;DHT22;321;48.814;9.132;2023-04-25T08:59:25;12.60;99.90
678;DHT22;321;48.814;9.132;2023-04-25T09:01:52;12.50;99.90
678;DHT22;321;48.814;9.132;2023-04-25T09:04:18;12.50;99.90
678;DHT22;321;48.814;9.132;2023-04-25T09:06:44;12.50;99.90
678;DHT22;321;48.814;9.132;2023-04-25T09:09:09;12.60;99.90
678;DHT22;321;48.814;9.132;2023-04-25T09:11:36;12.40;99.90
678;DHT22;321;48.814;9.132;2023-04-25T09:14:19;12.40;99.90
678;DHT22;321;48.814;9.132;2023-04-25T09:16:59;12.40;99.90
678;DHT22;321;48.814;9.132;2023-04-25T09:19:33;12.50;99.90
678;DHT22;321;48.814;9.132;2023-04-25T09:22:03;12.20;99.90
678;DHT22;321;48.814;9.132;2023-04-25T09:26:57;12.40;99.90
678;DHT22;321;48.814;9.132;2023-04-25T09:29:30;12.50;99.90
678;DHT22;321;48.814;9.132;2023-04-25T09:32:18;12.50;99.90
678;DHT22;321;48.814;9.132;2023-04-25T09:34:54;12.50;99.90
678;DHT22;321;48.814;9.132;2023-04-25T09:37:28;12.60;99.90
678;DHT22;321;48.814;9.132;2023-04-25T09:39:56;12.50;99.90
678;DHT22;321;48.814;9.132;2023-04-25T09:42:23;12.30;99.90
678;DHT22;321;48.814;9.132;2023-04-25T09:44:51;12.10;99.90
678;DHT22;321;48.814;9.132;2023-04-25T09:47:17;12.20;99.90
678;DHT22;321;48.814;9.132;2023-04-25T09:49:43;11.90;99.90
678;DHT22;321;48.814;9.132;2023-04-25T09:52:23;11.70;99.90
678;DHT22;321;48.814;9.132;2023-04-25T09:54:49;11.60;99.90
678;DHT22;321;48.814;9.132;2023-04-25T09:57:17;11.30;99.90
678;DHT22;321;48.814;9.132;2023-04-25T09:59:53;11.30;99.90
678;DHT22;321;48.814;9.132;2023-04-25T10:02:22;11.40;99.90
678;DHT22;321;48.814;9.132;2023-04-25T10:04:50;11.40;99.90
678;DHT22;321;48.814;9.132;2023-04-25T10:07:18;11.10;99.90
678;DHT22;321;48.814;9.132;2023-04-25T10:09:48;11.00;99.90
678;DHT22;321;48.814;9.132;2023-04-25T10:12:15;11.00;99.90
678;DHT22;321;48.814;9.132;2023-04-25T10:14:42;11.00;99.90
678;DHT22;321;48.814;9.132;2023-04-25T10:17:10;11.10;99.90
678;DHT22;321;48.814;9.132;2023-04-25T10:19:36;10.90;99.90
678;DHT22;321;48.814;9.132;2023-04-25T10:22:08;11.00;99.90
678;DHT22;321;48.814;9.132;2023-04-25T10:24:37;10.90;99.90
678;DHT22;321;48.814;9.132;2023-04-25T10:27:04;10.70;99.90
678;DHT22;321;48.814;9.132;2023-04-25T10:29:30;10.80;99.90
678;DHT22;321;48.814;9.132;2023-04-25T10:31:57;10.90;99.90
678;DHT22;321;48.814;9.132;2023-04-25T10:34:43;11.00;99.90
678;DHT22;321;48.814;9.132;2023-04-25T10:37:12;10.90;99.90
678;DHT22;321;48.814;9.132;2023-04-25T10:39:40;10.90;99.90
678;DHT22;321;48.814;9.132;2023-04-25T10:42:06;10.90;99.90
678;DHT22;321;48.814;9.132;2023-04-25T10:44:34;10.80;99.90
678;DHT22;321;48.814;9.132;2023-04-25T10:47:01;10.70;99.90
678;DHT22;321;48.814;9.132;2023-04-25T10:49:41;10.70;99.90
678;DHT22;321;48.814;9.132;2023-04-25T10:52:11;10.70;99.90
678;DHT22;321;48.814;9.132;2023-04-25T10:54:48;10.60;99.90
678;DHT22;321;48.814;9.132;2023-04-25T10:57:41;10.70;99.90
678;DHT22;321;48.814;9.132;2023-04-25T11:02:45;10.80;99.90
678;DHT22;321;48.814;9.132;2023-04-25T11:05:34;10.80;99.90
678;DHT22;321;48.814;9.132;2023-04-25T11:08:00;10.90;99.90
678;DHT22;321;48.814;9.132;2023-04-25T11:10:31;10.90;99.90
678;DHT22;321;48.814;9.132;2023-04-25T11:12:57;10.90;99.90
678;DHT22;321;48.814;9.132;2023-04-25T11:15:24;11.00;99.90
678;DHT22;321;48.814;9.132;2023-04-25T11:17:53;11.00;99.90
678;DHT22;321;48.814;9.132;2023-04-25T11:20:20;11.10;99.90
678;DHT22;321;48.814;9.132;2023-04-25T11:22:46;11.30;99.90
678;DHT22;321;48.814;9.132;2023-04-25T11:25:14;11.30;99.90
678;DHT22;321;48.814;9.132;2023-04-25T11:27:57;11.40;99.90
678;DHT22;321;48.814;9.132;2023-04-25T11:30:25;11.40;99.90
678;DHT22;321;48.814;9.132;2023-04-25T11:32:51;11.50;99.90
678;DHT22;321;48.814;9.132;2023-04-25T11:35:20;11.70;99.90
678;DHT22;321;48.814;9.132;2023-04-25T11:37:48;11.70;99.90
678;DHT22;321;48.814;9.132;2023-04-25T11:40:15;11.70;99.90
678;DHT22;321;48.814;9.132;2023-04-25T11:42:44;11.80;99.90
678;DHT22;321;48.814;9.132;2023-04-25T11:45:11;11.80;99.90
678;DHT22;321;48.814;9.132;2023-04-25T11:47:37;11.70;99.90
678;DHT22;321;48.814;9.132;2023-04-25T11:50:04;11.80;99.90
678;DHT22;321;48.814;9.132;2023-04-25T11:52:37;11.70;99.90
678;DHT22;321;48.814;9.132;2023-04-25T11:55:12;11.90;99.90
678;DHT22;321;48.814;9.132;2023-04-25T11:57:39;11.90;99.90
678;DHT22;321;48.814;9.132;2023-04-25T12:00:16;12.00;99.90
678;DHT22;321;48.814;9.132;2023-04-25T12:02:53;12.20;99.90
678;DHT22;321;48.814;9.132;2023-04-25T12:05:19;12.20;99.90
678;DHT22;321;48.814;9.132;2023-04-25T12:07:46;12.10;99.90
678;DHT22;321;48.814;9.132;2023-04-25T12:10:13;12.40;99.90
678;DHT22;321;48.814;9.132;2023-04-25T12:12:44;12.50;99.90
678;DHT22;321;48.814;9.132;2023-04-25T12:17:46;12.60;99.90
678;DHT22;321;48.814;9.132;2023-04-25T12:20:14;12.50;99.90
678;DHT22;321;48.814;9.132;2023-04-25T12:22:42;12.40;99.90
678;DHT22;321;48.814;9.132;2023-04-25T12:25:57;12.30;99.90
678;DHT22;321;48.814;9.132;2023-04-25T12:28:17;12.20;99.90
678;DHT22;321;48.814;9.132;2023-04-25T12:31:03;12.00;99.90
678;DHT22;321;48.814;9.132;2023-04-25T12:33:31;12.20;99.90
678;DHT22;321;48.814;9.132;2023-04-25T12:35:57;12.40;99.90
678;DHT22;321;48.814;9.132;2023-04-25T12:38:28;12.60;99.90
678;DHT22;321;48.814;9.132;2023-04-25T12:40:57;12.90;99.90
678;DHT22;321;48.814;9.132;2023-04-25T12:43:23;13.10;99.90
678;DHT22;321;48.814;9.132;2023-04-25T12:45:50;13.40;99.90
678;DHT22;321;48.814;9.132;2023-04-25T12:48:19;13.30;99.90
678;DHT22;321;48.814;9.132;2023-04-25T12:50:46;13.60;99.90
678;DHT22;321;48.814;9.132;2023-04-25T12:53:19;13.60;99.90
678;DHT22;321;48.814;9.132;2023-04-25T12:55:45;14.00;99.90
678;DHT22;321;48.814;9.132;2023-04-25T12:58:14;14.00;99.90
678;DHT22;321;48.814;9.132;2023-04-25T13:00:39;14.10;99.90
678;DHT22;321;48.814;9.132;2023-04-25T13:03:05;14.30;99.90
678;DHT22;321;48.814;9.132;2023-04-25T13:05:31;14.50;99.90
678;DHT22;321;48.814;9.132;2023-04-25T13:07:56;14.60;99.90
678;DHT22;321;48.814;9.132;2023-04-25T13:10:22;14.50;99.90
678;DHT22;321;48.814;9.132;2023-04-25T13:12:48;14.50;99.90
678;DHT22;321;48.814;9.132;2023-04-25T13:15:13;14.40;99.90
678;DHT22;321;48.814;9.132;2023-04-25T13:17:41;14.50;99.90
678;DHT22;321;48.814;9.132;2023-04-25T13:20:07;14.80;99.90
678;DHT22;321;48.814;9.132;2023-04-25T13:22:40;14.80;99.90
678;DHT22;321;48.814;9.132;2023-04-25T13:25:07;15.10;99.90
678;DHT22;321;48.814;9.132;2023-04-25T13:27:34;14.90;99.90
678;DHT22;321;48.814;9.132;2023-04-25T13:30:01;15.00;99.90
678;DHT22;321;48.814;9.132;2023-04-25T13:32:30;15.00;99.90
678;DHT22;321;48.814;9.132;2023-04-25T13:34:55;14.70;99.90
678;DHT22;321;48.814;9.132;2023-04-25T13:37:21;14.40;99.90
678;DHT22;321;48.814;9.132;2023-04-25T13:39:49;14.10;99.90
678;DHT22;321;48.814;9.132;2023-04-25T13:42:15;13.80;99.90
678;DHT22;321;48.814;9.132;2023-04-25T13:44:41;13.80;99.90
678;DHT22;321;48.814;9.132;2023-04-25T13:47:06;13.80;99.90
678;DHT22;321;48.814;9.132;2023-04-25T13:49:32;13.90;99.90
678;DHT22;321;48.814;9.132;2023-04-25T13:51:57;14.10;99.90
678;DHT22;321;48.814;9.132;2023-04-25T13:54:23;14.30;99.90
678;DHT22;321;48.814;9.132;2023-04-25T13:56:49;14.40;99.90
678;DHT22;321;48.814;9.132;2023-04-25T13:59:15;14.30;99.90
678;DHT22;321;48.814;9.132;2023-04-25T14:01:41;14.50;99.90
678;DHT22;321;48.814;9.132;2023-04-25T14:04:07;14.40;99.90
678;DHT22;321;48.814;9.132;2023-04-25T14:06:32;14.40;99.90
678;DHT22;321;48.814;9.132;2023-04-25T14:08:58;14.40;99.90
678;DHT22;321;48.814;9.132;2023-04-25T14:11:26;14.30;99.90
678;DHT22;321;48.814;9.132;2023-04-25T14:13:51;14.30;99.90
678;DHT22;321;48.814;9.132;2023-04-25T14:16:17;14.10;99.90
678;DHT22;321;48.814;9.132;2023-04-25T14:18:43;14.10;99.90
678;DHT22;321;48.814;9.132;2023-04-25T14:21:08;14.20;99.90
678;DHT22;321;48.814;9.132;2023-04-25T14:23:35;14.10;99.90
678;DHT22;321;48.814;9.132;2023-04-25T14:26:00;14.10;99.90
678;DHT22;321;48.814;9.132;2023-04-25T14:28:26;13.90;99.90
678;DHT22;321;48.814;9.132;2023-04-25T14:30:52;13.80;99.90
678;DHT22;321;48.814;9.132;2023-04-25T14:33:18;13.80;99.90
678;DHT22;321;48.814;9.132;2023-04-25T14:35:43;13.70;99.90
678;DHT22;321;48.814;9.132;2023-04-25T14:38:09;13.80;99.90
678;DHT22;321;48.814;9.132;2023-04-25T14:40:34;13.80;99.90
678;DHT22;321;48.814;9.132;2023-04-25T14:43:00;13.90;99.90
678;DHT22;321;48.814;9.132;2023-04-25T14:45:25;14.10;99.90
678;DHT22;321;48.814;9.132;2023-04-25T14:47:51;14.00;99.90
678;DHT22;321;48.814;9.132;2023-04-25T14:50:17;14.00;99.90
678;DHT22;321;48.814;9.132;2023-04-25T14:52:43;14.00;99.90
678;DHT22;321;48.814;9.132;2023-04-25T14:55:10;14.10;99.90
678;DHT22;321;48.814;9.132;2023-04-25T14:57:35;14.00;99.90
678;DHT22;321;48.814;9.132;2023-04-25T15:00:01;13.80;99.90
678;DHT22;321;48.814;9.132;2023-04-25T15:02:30;13.70;99.90
678;DHT22;321;48.814;9.132;2023-04-25T15:04:56;13.60;99.90
678;DHT22;321;48.814;9.132;2023-04-25T15:07:21;13.50;99.90
678;DHT22;321;48.814;9.132;2023-04-25T15:09:47;13.50;99.90
678;DHT22;321;48.814;9.132;2023-04-25T15:12:13;13.30;99.90
678;DHT22;321;48.814;9.132;2023-04-25T15:14:39;13.40;99.90
678;DHT22;321;48.814;9.132;2023-04-25T15:17:05;13.00;99.90
678;DHT22;321;48.814;9.132;2023-04-25T15:19:31;13.10;99.90
678;DHT22;321;48.814;9.132;2023-04-25T15:21:57;13.20;99.90
678;DHT22;321;48.814;9.132;2023-04-25T15:24:25;13.30;99.90
678;DHT22;321;48.814;9.132;2023-04-25T15:26:51;13.00;99.90
678;DHT22;321;48.814;9.132;2023-04-25T15:29:17;12.80;99.90
678;DHT22;321;48.814;9.132;2023-04-25T15:31:43;12.90;99.90
678;DHT22;321;48.814;9.132;2023-04-25T15:34:08;12.90;99.90
678;DHT22;321;48.814;9.132;2023-04-25T15:36:34;12.90;99.90
678;DHT22;321;48.814;9.132;2023-04-25T15:38:59;12.70;99.90
678;DHT22;321;48.814;9.132;2023-04-25T15:41:25;12.90;99.90
678;DHT22;321;48.814;9.132;2023-04-25T15:43:52;13.10;99.90
678;DHT22;321;48.814;9.132;2023-04-25T15:46:17;13.10;99.90
678;DHT22;321;48.814;9.132;2023-04-25T15:48:43;13.20;99.90
678;DHT22;321;48.814;9.132;2023-04-25T15:51:09;13.30;99.90
678;DHT22;321;48.814;9.132;2023-04-25T15:53:34;12.90;99.90
678;DHT22;321;48.814;9.132;2023-04-25T15:56:00;13.10;99.90
678;DHT22;321;48.814;9.132;2023-04-25T15:58:26;13.30;99.90
678;DHT22;321;48.814;9.132;2023-04-25T16:00:52;13.20;99.90
678;DHT22;321;48.814;9.132;2023-04-25T16:03:17;13.20;99.90
678;DHT22;321;48.814;9.132;2023-04-25T16:05:43;13.30;99.90
678;DHT22;321;48.814;9.132;2023-04-25T16:08:08;13.30;99.90
678;DHT22;321;48.814;9.132;2023-04-25T16:10:34;13.10;99.90
678;DHT22;321;48.814;9.132;2023-04-25T16:13:00;13.10;99.90
678;DHT22;321;48.814;9.132;2023-04-25T16:15:49;13.00;99.90
678;DHT22;321;48.814;9.132;2023-04-25T16:18:35;13.00;99.90
678;DHT22;321;48.814;9.132;2023-04-25T16:21:01;13.20;99.90
678;DHT22;321;48.814;9.132;2023-04-25T16:23:27;13.20;99.90
678;DHT22;321;48.814;9.132;2023-04-25T16:25:52;13.30;99.90
678;DHT22;321;48.814;9.132;2023-04-25T16:28:19;13.30;99.90
678;DHT22;321;48.814;9.132;2023-04-25T16:30:45;13.30;99.90
678;DHT22;321;48.814;9.132;2023-04-25T16:33:10;13.30;99.90
678;DHT22;321;48.814;9.132;2023-04-25T16:35:36;13.30;99.90
678;DHT22;321;48.814;9.132;2023-04-25T16:38:02;13.20;99.90
678;DHT22;321;48.814;9.132;2023-04-25T16:40:27;13.20;99.90